| time (UTC) | temp C | wind direction | speed KPH | gust KPH | rain 1hr cm | rain 24hr cm | rain mn cm | humidity % | barometer mb |
| 20260510203059 | 23 | 352 | 6.4 | 24.1 | 0.00 | 0.00 | 0.00 | 54 | 1014.2 |
| 20260510201558 | 23 | 296 | 16.1 | 27.4 | 0.00 | 0.00 | 0.00 | 52 | 1014.3 |
| 20260510200125 | 23 | 335 | 14.5 | 24.1 | 0.00 | 0.00 | 0.00 | 55 | 1014.2 |
| 20260510194603 | 23 | 322 | 14.5 | 30.6 | 0.00 | 0.00 | 0.00 | 55 | 1014.3 |
| 20260510193105 | 23 | 341 | 20.9 | 29.0 | 0.00 | 0.00 | 0.00 | 54 | 1014.4 |
| 20260510191605 | 23 | 349 | 19.3 | 29.0 | 0.00 | 0.00 | 0.00 | 54 | 1014.5 |
| 20260510190100 | 23 | 304 | 4.8 | 17.7 | 0.00 | 0.00 | 0.00 | 57 | 1014.3 |
| 20260510184602 | 23 | 335 | 12.9 | 17.7 | 0.00 | 0.00 | 0.00 | 54 | 1014.3 |
| 20260510183100 | 24 | 270 | 17.7 | 25.7 | 0.00 | 0.00 | 0.00 | 51 | 1014.1 |
| 20260510181601 | 23 | 287 | 12.9 | 19.3 | 0.00 | 0.00 | 0.00 | 55 | 1014.2 |
| 20260510180058 | 23 | 307 | 4.8 | 16.1 | 0.00 | 0.00 | 0.00 | 53 | 1014.1 |
| 20260510174555 | 23 | 339 | 11.3 | 19.3 | 0.00 | 0.00 | 0.00 | 56 | 1014.3 |
| 20260510173056 | 23 | 352 | 8.0 | 17.7 | 0.00 | 0.00 | 0.00 | 53 | 1014.3 |
| 20260510171556 | 23 | 309 | 9.7 | 29.0 | 0.00 | 0.00 | 0.00 | 51 | 1014.3 |
| 20260510170058 | 23 | 330 | 6.4 | 19.3 | 0.00 | 0.00 | 0.00 | 54 | 1014.2 |
| 20260510164558 | 23 | 300 | 6.4 | 17.7 | 0.00 | 0.00 | 0.00 | 53 | 1014.2 |
| 20260510163056 | 23 | 311 | 11.3 | 19.3 | 0.00 | 0.00 | 0.00 | 53 | 1014.1 |
| 20260510161558 | 23 | 352 | 17.7 | 24.1 | 0.00 | 0.00 | 0.00 | 52 | 1014.3 |
| 20260510160101 | 23 | 312 | 9.7 | 20.9 | 0.00 | 0.00 | 0.00 | 53 | 1014.3 |
| 20260510154557 | 23 | 269 | 4.8 | 16.1 | 0.00 | 0.00 | 0.00 | 54 | 1014.2 |
| 20260510153059 | 22 | 237 | 4.8 | 19.3 | 0.00 | 0.00 | 0.00 | 56 | 1014.3 |
| 20260510151559 | 22 | 235 | 4.8 | 14.5 | 0.00 | 0.00 | 0.00 | 57 | 1014.4 |
| 20260510150059 | 21 | 279 | 4.8 | 20.9 | 0.00 | 0.00 | 0.00 | 59 | 1014.3 |
| 20260510144555 | 21 | 270 | 4.8 | 16.1 | 0.00 | 0.00 | 0.00 | 58 | 1014.6 |
| 20260510143056 | 20 | 270 | 9.7 | 22.5 | 0.00 | 0.00 | 0.00 | 59 | 1014.5 |
| 20260510141600 | 20 | 322 | 8.0 | 17.7 | 0.00 | 0.00 | 0.00 | 63 | 1014.6 |
| 20260510140058 | 20 | 219 | 4.8 | 16.1 | 0.00 | 0.00 | 0.00 | 66 | 1014.8 |
| 20260510134604 | 18 | 0 | 4.8 | 16.1 | 0.00 | 0.00 | 0.00 | 70 | 1014.7 |
| 20260510133055 | 17 | 251 | 8.0 | 24.1 | 0.00 | 0.00 | 0.00 | 77 | 1014.6 |
| 20260510131557 | 16 | 0 | 4.8 | 11.3 | 0.00 | 0.00 | 0.00 | 88 | 1014.4 |
| 20260510130148 | 15 | 302 | 1.6 | 6.4 | 0.00 | 0.00 | 0.00 | 91 | 1014.7 |
| 20260510124601 | 14 | 239 | 0.0 | 4.8 | 0.00 | 0.00 | 0.00 | 92 | 1014.5 |
| 20260510123102 | 13 | 65 | 0.0 | 4.8 | 0.00 | 0.00 | 0.00 | 92 | 1014.5 |
| 20260510121557 | 12 | 77 | 0.0 | 4.8 | 0.00 | 0.00 | 0.00 | 92 | 1014.4 |
| 20260510120057 | 11 | 96 | 1.6 | 4.8 | 0.00 | 0.00 | 0.00 | 92 | 1014.3 |
| 20260510114554 | 11 | 80 | 1.6 | 6.4 | 0.00 | 0.00 | 0.00 | 92 | 1014.2 |
| 20260510113057 | 10 | 85 | 1.6 | 4.8 | 0.00 | 0.00 | 0.00 | 92 | 1014.1 |
| 20260510111557 | 10 | 0 | 3.2 | 6.4 | 0.00 | 0.00 | 0.00 | 92 | 1013.7 |
| 20260510110054 | 10 | 98 | 1.6 | 6.4 | 0.00 | 0.00 | 0.00 | 92 | 1013.5 |
| 20260510104555 | 10 | 0 | 0.0 | 1.6 | 0.00 | 0.00 | 0.00 | 91 | 1013.2 |
| 20260510103101 | 10 | 90 | 4.8 | 6.4 | 0.00 | 0.00 | 0.00 | 92 | 1013.2 |
| 20260510101607 | 10 | 96 | 3.2 | 9.7 | 0.00 | 0.00 | 0.00 | 91 | 1013.2 |
| 20260510100057 | 11 | 85 | 1.6 | 9.7 | 0.00 | 0.00 | 0.00 | 91 | 1012.9 |
| 20260510094556 | 11 | 85 | 1.6 | 9.7 | 0.00 | 0.00 | 0.00 | 91 | 1012.8 |
| 20260510093054 | 11 | 101 | 3.2 | 9.7 | 0.00 | 0.00 | 0.00 | 91 | 1012.6 |
| 20260510091554 | 11 | 90 | 6.4 | 9.7 | 0.00 | 0.00 | 0.00 | 91 | 1012.5 |
| 20260510090113 | 11 | 87 | 3.2 | 9.7 | 0.00 | 0.00 | 0.00 | 91 | 1012.3 |
| 20260510084558 | 11 | 60 | 4.8 | 6.4 | 0.00 | 0.00 | 0.00 | 91 | 1012.2 |
| 20260510083054 | 11 | 74 | 1.6 | 6.4 | 0.00 | 0.00 | 0.00 | 91 | 1012.2 |
| 20260510081559 | 11 | 74 | 4.8 | 11.3 | 0.00 | 0.00 | 0.00 | 91 | 1012.1 |
| 20260510080056 | 10 | 97 | 1.6 | 9.7 | 0.00 | 0.00 | 0.00 | 90 | 1011.9 |
| 20260510074554 | 10 | 100 | 3.2 | 4.8 | 0.00 | 0.00 | 0.00 | 90 | 1011.8 |
| 20260510073104 | 11 | 0 | 1.6 | 9.7 | 0.00 | 0.00 | 0.00 | 90 | 1011.8 |
| 20260510071558 | 11 | 120 | 3.2 | 9.7 | 0.00 | 0.00 | 0.00 | 90 | 1011.9 |
| 20260510070059 | 11 | 0 | 1.6 | 6.4 | 0.00 | 0.00 | 0.00 | 90 | 1011.9 |
| 20260510064556 | 11 | 117 | 4.8 | 9.7 | 0.00 | 0.00 | 0.00 | 90 | 1011.7 |
| 20260510063105 | 11 | 102 | 1.6 | 9.7 | 0.00 | 0.00 | 0.00 | 90 | 1011.9 |
| 20260510061603 | 11 | 107 | 4.8 | 6.4 | 0.00 | 0.00 | 0.00 | 89 | 1011.9 |
| 20260510060058 | 11 | 83 | 0.0 | 3.2 | 0.00 | 0.00 | 0.00 | 89 | 1011.9 |
| 20260510054606 | 11 | 0 | 0.0 | 3.2 | 0.00 | 0.00 | 0.00 | 89 | 1012.0 |
| 20260510053059 | 11 | 111 | 1.6 | 9.7 | 0.00 | 0.00 | 0.00 | 88 | 1012.0 |
| 20260510051601 | 11 | 0 | 0.0 | 4.8 | 0.00 | 0.00 | 0.00 | 88 | 1012.2 |
| 20260510044556 | 12 | 81 | 1.6 | 4.8 | 0.00 | 0.00 | 0.00 | 87 | 1012.4 |
| 20260510043058 | 12 | 0 | 0.0 | 3.2 | 0.00 | 0.00 | 0.00 | 86 | 1012.4 |
| 20260510041635 | 12 | 0 | 0.0 | 3.2 | 0.00 | 0.00 | 0.00 | 86 | 1012.4 |
| 20260510034559 | 13 | 0 | 0.0 | 0.0 | 0.00 | 0.00 | 0.00 | 84 | 1012.3 |
| 20260510033113 | 13 | 0 | 0.0 | 4.8 | 0.00 | 0.00 | 0.00 | 83 | 1012.1 |
| 20260510031602 | 13 | 174 | 0.0 | 3.2 | 0.00 | 0.00 | 0.00 | 81 | 1011.9 |
| 20260510030058 | 14 | 0 | 0.0 | 0.0 | 0.00 | 0.00 | 0.00 | 80 | 1012.1 |
| 20260510024610 | 14 | 0 | 0.0 | 4.8 | 0.00 | 0.00 | 0.00 | 79 | 1011.7 |
| 20260510023101 | 15 | 0 | 0.0 | 4.8 | 0.00 | 0.00 | 0.00 | 78 | 1011.5 |
| 20260510021557 | 15 | 199 | 0.0 | 8.0 | 0.00 | 0.00 | 0.00 | 76 | 1011.2 |
| 20260510020101 | 15 | 205 | 1.6 | 8.0 | 0.00 | 0.00 | 0.00 | 74 | 1011.0 |
| 20260510014614 | 16 | 195 | 1.6 | 8.0 | 0.00 | 0.00 | 0.00 | 72 | 1010.9 |
| 20260510013104 | 16 | 200 | 1.6 | 6.4 | 0.00 | 0.00 | 0.00 | 70 | 1010.8 |
| 20260510011556 | 17 | 211 | 0.0 | 6.4 | 0.00 | 0.00 | 0.00 | 67 | 1010.6 |
| 20260510010056 | 18 | 240 | 0.0 | 6.4 | 0.00 | 0.00 | 0.00 | 65 | 1010.4 |
| 20260510004605 | 18 | 224 | 3.2 | 6.4 | 0.00 | 0.00 | 0.00 | 64 | 1010.2 |
| 20260510003054 | 19 | 233 | 3.2 | 12.9 | 0.00 | 0.00 | 0.00 | 62 | 1010.0 |
| 20260510001558 | 19 | 198 | 4.8 | 16.1 | 0.00 | 0.00 | 0.00 | 61 | 1009.7 |
| 20260510000057 | 20 | 229 | 8.0 | 16.1 | 0.00 | 0.00 | 0.00 | 59 | 1009.8 |
| 20260509234557 | 20 | 252 | 4.8 | 16.1 | 0.00 | 0.00 | 0.00 | 59 | 1009.8 |
| 20260509233054 | 20 | 263 | 12.9 | 24.1 | 0.00 | 0.00 | 0.00 | 58 | 1009.6 |
| 20260509231607 | 21 | 230 | 9.7 | 20.9 | 0.00 | 0.00 | 0.00 | 58 | 1009.6 |
| 20260509230057 | 21 | 266 | 8.0 | 24.1 | 0.00 | 0.00 | 0.00 | 56 | 1009.5 |
| 20260509224557 | 21 | 241 | 11.3 | 24.1 | 0.00 | 0.00 | 0.00 | 57 | 1009.6 |
| 20260509223055 | 21 | 233 | 9.7 | 22.5 | 0.00 | 0.00 | 0.00 | 57 | 1009.3 |
| 20260509221555 | 21 | 216 | 4.8 | 17.7 | 0.00 | 0.00 | 0.00 | 58 | 1009.6 |
| 20260509220059 | 21 | 264 | 6.4 | 24.1 | 0.00 | 0.00 | 0.00 | 57 | 1009.6 |
| 20260509214558 | 21 | 269 | 4.8 | 27.4 | 0.00 | 0.00 | 0.00 | 55 | 1009.7 |
| 20260509213059 | 21 | 198 | 6.4 | 30.6 | 0.00 | 0.00 | 0.00 | 55 | 1009.8 |
| 20260509211600 | 21 | 243 | 8.0 | 20.9 | 0.00 | 0.00 | 0.00 | 57 | 1009.7 |
| 20260509210107 | 21 | 251 | 9.7 | 29.0 | 0.00 | 0.00 | 0.00 | 57 | 1009.7 |
| 20260509204554 | 20 | 290 | 9.7 | 19.3 | 0.00 | 0.00 | 0.00 | 59 | 1009.7 |